sensor_id;sensor_type;location;lat;lon;timestamp;P1;durP1;ratioP1;P2;durP2;ratioP2
68987;SDS011;56038;46.080;11.116;2023-02-13T00:01:17;24.83;;;17.02;;
68987;SDS011;56038;46.080;11.116;2023-02-13T00:06:19;25.20;;;16.17;;
68987;SDS011;56038;46.080;11.116;2023-02-13T00:11:22;24.02;;;16.10;;
68987;SDS011;56038;46.080;11.116;2023-02-13T00:16:24;27.45;;;18.70;;
68987;SDS011;56038;46.080;11.116;2023-02-13T00:21:25;26.75;;;16.13;;
68987;SDS011;56038;46.080;11.116;2023-02-13T00:26:28;27.02;;;17.88;;
68987;SDS011;56038;46.080;11.116;2023-02-13T00:31:30;23.13;;;16.33;;
68987;SDS011;56038;46.080;11.116;2023-02-13T00:36:32;28.83;;;16.77;;
68987;SDS011;56038;46.080;11.116;2023-02-13T00:41:35;22.83;;;15.00;;
68987;SDS011;56038;46.080;11.116;2023-02-13T00:46:37;29.35;;;17.52;;
68987;SDS011;56038;46.080;11.116;2023-02-13T00:51:39;29.23;;;17.45;;
68987;SDS011;56038;46.080;11.116;2023-02-13T00:56:42;28.83;;;18.60;;
68987;SDS011;56038;46.080;11.116;2023-02-13T01:01:43;28.23;;;16.27;;
68987;SDS011;56038;46.080;11.116;2023-02-13T01:06:45;28.92;;;18.13;;
68987;SDS011;56038;46.080;11.116;2023-02-13T01:11:48;25.25;;;16.27;;
68987;SDS011;56038;46.080;11.116;2023-02-13T01:16:50;23.73;;;15.25;;
68987;SDS011;56038;46.080;11.116;2023-02-13T01:21:52;26.70;;;16.10;;
68987;SDS011;56038;46.080;11.116;2023-02-13T01:26:55;27.88;;;16.77;;
68987;SDS011;56038;46.080;11.116;2023-02-13T01:31:57;26.42;;;16.15;;
68987;SDS011;56038;46.080;11.116;2023-02-13T01:36:58;24.17;;;15.23;;
68987;SDS011;56038;46.080;11.116;2023-02-13T01:42:02;22.17;;;14.50;;
68987;SDS011;56038;46.080;11.116;2023-02-13T01:47:04;26.08;;;16.02;;
68987;SDS011;56038;46.080;11.116;2023-02-13T01:52:05;27.45;;;16.27;;
68987;SDS011;56038;46.080;11.116;2023-02-13T01:57:12;25.05;;;15.13;;
68987;SDS011;56038;46.080;11.116;2023-02-13T02:02:16;27.30;;;15.70;;
68987;SDS011;56038;46.080;11.116;2023-02-13T02:07:20;24.73;;;16.38;;
68987;SDS011;56038;46.080;11.116;2023-02-13T02:12:27;28.97;;;18.27;;
68987;SDS011;56038;46.080;11.116;2023-02-13T02:17:34;26.58;;;16.75;;
68987;SDS011;56038;46.080;11.116;2023-02-13T02:28:26;24.08;;;14.60;;
68987;SDS011;56038;46.080;11.116;2023-02-13T02:33:43;23.08;;;14.55;;
68987;SDS011;56038;46.080;11.116;2023-02-13T02:38:59;26.40;;;15.60;;
68987;SDS011;56038;46.080;11.116;2023-02-13T02:44:08;21.98;;;14.50;;
68987;SDS011;56038;46.080;11.116;2023-02-13T02:49:21;26.42;;;16.30;;
68987;SDS011;56038;46.080;11.116;2023-02-13T02:54:42;25.85;;;17.35;;
68987;SDS011;56038;46.080;11.116;2023-02-13T03:00:07;28.23;;;16.90;;
68987;SDS011;56038;46.080;11.116;2023-02-13T03:05:30;30.17;;;17.77;;
68987;SDS011;56038;46.080;11.116;2023-02-13T03:11:02;23.48;;;15.07;;
68987;SDS011;56038;46.080;11.116;2023-02-13T03:16:23;26.48;;;16.25;;
68987;SDS011;56038;46.080;11.116;2023-02-13T03:21:46;31.17;;;18.75;;
68987;SDS011;56038;46.080;11.116;2023-02-13T03:27:10;29.90;;;18.13;;
68987;SDS011;56038;46.080;11.116;2023-02-13T03:32:41;28.05;;;17.77;;
68987;SDS011;56038;46.080;11.116;2023-02-13T03:37:52;23.95;;;14.88;;
68987;SDS011;56038;46.080;11.116;2023-02-13T03:43:02;27.35;;;16.73;;
68987;SDS011;56038;46.080;11.116;2023-02-13T03:48:08;27.70;;;15.60;;
68987;SDS011;56038;46.080;11.116;2023-02-13T03:53:33;29.98;;;18.77;;
68987;SDS011;56038;46.080;11.116;2023-02-13T03:58:40;27.60;;;17.00;;
68987;SDS011;56038;46.080;11.116;2023-02-13T04:04:04;20.02;;;13.88;;
68987;SDS011;56038;46.080;11.116;2023-02-13T04:09:11;19.95;;;12.68;;
68987;SDS011;56038;46.080;11.116;2023-02-13T04:14:14;22.30;;;14.07;;
68987;SDS011;56038;46.080;11.116;2023-02-13T04:19:21;24.63;;;15.48;;
68987;SDS011;56038;46.080;11.116;2023-02-13T04:24:27;22.00;;;13.57;;
68987;SDS011;56038;46.080;11.116;2023-02-13T04:29:29;21.95;;;14.73;;
68987;SDS011;56038;46.080;11.116;2023-02-13T04:34:31;22.33;;;14.77;;
68987;SDS011;56038;46.080;11.116;2023-02-13T04:39:34;21.02;;;13.50;;
68987;SDS011;56038;46.080;11.116;2023-02-13T04:44:36;18.63;;;12.77;;
68987;SDS011;56038;46.080;11.116;2023-02-13T04:49:37;22.70;;;14.55;;
68987;SDS011;56038;46.080;11.116;2023-02-13T04:54:40;19.85;;;13.20;;
68987;SDS011;56038;46.080;11.116;2023-02-13T04:59:42;21.65;;;12.88;;
68987;SDS011;56038;46.080;11.116;2023-02-13T05:04:44;19.20;;;11.57;;
68987;SDS011;56038;46.080;11.116;2023-02-13T05:09:47;22.83;;;14.43;;
68987;SDS011;56038;46.080;11.116;2023-02-13T05:14:49;21.83;;;13.80;;
68987;SDS011;56038;46.080;11.116;2023-02-13T05:19:50;19.75;;;13.43;;
68987;SDS011;56038;46.080;11.116;2023-02-13T05:24:54;18.95;;;12.38;;
68987;SDS011;56038;46.080;11.116;2023-02-13T05:29:55;21.10;;;12.57;;
68987;SDS011;56038;46.080;11.116;2023-02-13T05:34:57;21.30;;;12.70;;
68987;SDS011;56038;46.080;11.116;2023-02-13T05:40:00;19.73;;;12.88;;
68987;SDS011;56038;46.080;11.116;2023-02-13T05:45:02;18.95;;;11.32;;
68987;SDS011;56038;46.080;11.116;2023-02-13T05:50:04;20.63;;;11.48;;
68987;SDS011;56038;46.080;11.116;2023-02-13T05:55:09;15.25;;;9.60;;
68987;SDS011;56038;46.080;11.116;2023-02-13T06:00:11;16.90;;;12.25;;
68987;SDS011;56038;46.080;11.116;2023-02-13T06:05:13;21.63;;;13.02;;
68987;SDS011;56038;46.080;11.116;2023-02-13T06:10:17;18.40;;;12.65;;
68987;SDS011;56038;46.080;11.116;2023-02-13T06:15:19;17.83;;;12.75;;
68987;SDS011;56038;46.080;11.116;2023-02-13T06:20:20;22.08;;;12.80;;
68987;SDS011;56038;46.080;11.116;2023-02-13T06:25:24;18.17;;;12.57;;
68987;SDS011;56038;46.080;11.116;2023-02-13T06:30:26;20.58;;;12.80;;
68987;SDS011;56038;46.080;11.116;2023-02-13T06:35:27;17.23;;;12.43;;
68987;SDS011;56038;46.080;11.116;2023-02-13T06:40:31;20.48;;;13.13;;
68987;SDS011;56038;46.080;11.116;2023-02-13T06:45:32;21.95;;;12.95;;
68987;SDS011;56038;46.080;11.116;2023-02-13T06:50:34;24.98;;;15.98;;
68987;SDS011;56038;46.080;11.116;2023-02-13T06:55:37;25.48;;;14.98;;
68987;SDS011;56038;46.080;11.116;2023-02-13T07:00:39;20.70;;;14.02;;
68987;SDS011;56038;46.080;11.116;2023-02-13T07:05:42;21.90;;;13.65;;
68987;SDS011;56038;46.080;11.116;2023-02-13T07:10:47;20.88;;;12.93;;
68987;SDS011;56038;46.080;11.116;2023-02-13T07:15:48;22.92;;;13.88;;
68987;SDS011;56038;46.080;11.116;2023-02-13T07:20:50;17.67;;;12.35;;
68987;SDS011;56038;46.080;11.116;2023-02-13T07:25:53;21.17;;;12.90;;
68987;SDS011;56038;46.080;11.116;2023-02-13T07:30:55;23.48;;;13.93;;
68987;SDS011;56038;46.080;11.116;2023-02-13T07:35:57;24.35;;;14.50;;
68987;SDS011;56038;46.080;11.116;2023-02-13T07:41:00;30.25;;;16.77;;
68987;SDS011;56038;46.080;11.116;2023-02-13T07:46:03;28.15;;;16.83;;
68987;SDS011;56038;46.080;11.116;2023-02-13T07:51:05;22.30;;;15.70;;
68987;SDS011;56038;46.080;11.116;2023-02-13T07:56:09;24.05;;;14.57;;
68987;SDS011;56038;46.080;11.116;2023-02-13T08:01:11;20.80;;;13.07;;
68987;SDS011;56038;46.080;11.116;2023-02-13T08:06:15;21.63;;;13.52;;
68987;SDS011;56038;46.080;11.116;2023-02-13T08:11:22;18.85;;;12.40;;
68987;SDS011;56038;46.080;11.116;2023-02-13T08:16:44;15.38;;;9.93;;
68987;SDS011;56038;46.080;11.116;2023-02-13T08:21:46;17.85;;;11.95;;
68987;SDS011;56038;46.080;11.116;2023-02-13T08:26:49;19.52;;;12.88;;
68987;SDS011;56038;46.080;11.116;2023-02-13T08:31:51;18.70;;;11.57;;
68987;SDS011;56038;46.080;11.116;2023-02-13T08:36:52;15.35;;;9.60;;
68987;SDS011;56038;46.080;11.116;2023-02-13T08:41:55;15.32;;;10.50;;
68987;SDS011;56038;46.080;11.116;2023-02-13T08:46:57;13.60;;;9.05;;
68987;SDS011;56038;46.080;11.116;2023-02-13T08:52:01;15.65;;;10.27;;
68987;SDS011;56038;46.080;11.116;2023-02-13T08:57:05;25.58;;;15.60;;
68987;SDS011;56038;46.080;11.116;2023-02-13T09:02:08;16.40;;;11.55;;
68987;SDS011;56038;46.080;11.116;2023-02-13T09:07:10;16.13;;;11.60;;
68987;SDS011;56038;46.080;11.116;2023-02-13T09:12:14;18.60;;;11.38;;
68987;SDS011;56038;46.080;11.116;2023-02-13T09:17:17;19.73;;;13.18;;
68987;SDS011;56038;46.080;11.116;2023-02-13T09:22:18;19.23;;;13.43;;
68987;SDS011;56038;46.080;11.116;2023-02-13T09:27:21;19.58;;;14.35;;
68987;SDS011;56038;46.080;11.116;2023-02-13T09:32:23;19.15;;;12.95;;
68987;SDS011;56038;46.080;11.116;2023-02-13T09:37:25;19.77;;;12.82;;
68987;SDS011;56038;46.080;11.116;2023-02-13T09:42:29;18.70;;;12.93;;
68987;SDS011;56038;46.080;11.116;2023-02-13T09:47:36;21.27;;;12.98;;
68987;SDS011;56038;46.080;11.116;2023-02-13T09:52:42;17.38;;;13.05;;
68987;SDS011;56038;46.080;11.116;2023-02-13T09:57:49;16.95;;;11.43;;
68987;SDS011;56038;46.080;11.116;2023-02-13T10:03:10;15.45;;;11.77;;
68987;SDS011;56038;46.080;11.116;2023-02-13T10:08:22;16.30;;;10.73;;
68987;SDS011;56038;46.080;11.116;2023-02-13T10:13:40;14.43;;;11.20;;
68987;SDS011;56038;46.080;11.116;2023-02-13T10:18:52;16.50;;;11.00;;
68987;SDS011;56038;46.080;11.116;2023-02-13T10:23:58;14.35;;;10.20;;
68987;SDS011;56038;46.080;11.116;2023-02-13T10:29:07;14.63;;;10.27;;
68987;SDS011;56038;46.080;11.116;2023-02-13T10:34:33;15.13;;;10.73;;
68987;SDS011;56038;46.080;11.116;2023-02-13T10:39:39;15.77;;;10.60;;
68987;SDS011;56038;46.080;11.116;2023-02-13T10:44:46;14.20;;;9.82;;
68987;SDS011;56038;46.080;11.116;2023-02-13T10:50:01;11.98;;;9.38;;
68987;SDS011;56038;46.080;11.116;2023-02-13T10:55:14;15.93;;;11.10;;
68987;SDS011;56038;46.080;11.116;2023-02-13T11:00:28;15.73;;;11.15;;
68987;SDS011;56038;46.080;11.116;2023-02-13T11:05:37;17.75;;;12.13;;
68987;SDS011;56038;46.080;11.116;2023-02-13T11:10:41;14.65;;;10.10;;
68987;SDS011;56038;46.080;11.116;2023-02-13T11:15:56;14.70;;;11.05;;
68987;SDS011;56038;46.080;11.116;2023-02-13T11:21:01;13.02;;;10.13;;
68987;SDS011;56038;46.080;11.116;2023-02-13T11:26:08;15.38;;;10.00;;
68987;SDS011;56038;46.080;11.116;2023-02-13T11:31:20;11.73;;;10.02;;
68987;SDS011;56038;46.080;11.116;2023-02-13T11:36:26;14.15;;;11.05;;
68987;SDS011;56038;46.080;11.116;2023-02-13T11:41:29;14.15;;;10.70;;
68987;SDS011;56038;46.080;11.116;2023-02-13T11:46:44;13.35;;;10.05;;
68987;SDS011;56038;46.080;11.116;2023-02-13T11:51:49;15.05;;;11.65;;
68987;SDS011;56038;46.080;11.116;2023-02-13T11:56:53;16.00;;;11.80;;
68987;SDS011;56038;46.080;11.116;2023-02-13T12:02:10;13.93;;;9.88;;
68987;SDS011;56038;46.080;11.116;2023-02-13T12:07:19;14.10;;;10.50;;
68987;SDS011;56038;46.080;11.116;2023-02-13T12:17:30;13.43;;;10.60;;
68987;SDS011;56038;46.080;11.116;2023-02-13T12:22:38;16.83;;;12.25;;
68987;SDS011;56038;46.080;11.116;2023-02-13T12:27:50;18.23;;;11.98;;
68987;SDS011;56038;46.080;11.116;2023-02-13T12:33:08;19.80;;;12.90;;
68987;SDS011;56038;46.080;11.116;2023-02-13T12:38:20;16.92;;;12.85;;
68987;SDS011;56038;46.080;11.116;2023-02-13T12:49:12;17.83;;;13.43;;
68987;SDS011;56038;46.080;11.116;2023-02-13T12:54:27;16.77;;;11.85;;
68987;SDS011;56038;46.080;11.116;2023-02-13T13:04:58;17.40;;;11.73;;
68987;SDS011;56038;46.080;11.116;2023-02-13T13:10:15;14.50;;;10.13;;
68987;SDS011;56038;46.080;11.116;2023-02-13T13:26:09;15.23;;;10.50;;
68987;SDS011;56038;46.080;11.116;2023-02-13T13:31:17;14.75;;;11.35;;
68987;SDS011;56038;46.080;11.116;2023-02-13T13:36:29;14.95;;;10.95;;
68987;SDS011;56038;46.080;11.116;2023-02-13T13:41:39;12.65;;;8.90;;
68987;SDS011;56038;46.080;11.116;2023-02-13T13:46:50;12.93;;;11.05;;
68987;SDS011;56038;46.080;11.116;2023-02-13T13:52:09;17.58;;;11.90;;
68987;SDS011;56038;46.080;11.116;2023-02-13T13:57:22;17.38;;;11.77;;
68987;SDS011;56038;46.080;11.116;2023-02-13T14:02:36;16.25;;;11.05;;
68987;SDS011;56038;46.080;11.116;2023-02-13T14:07:46;24.17;;;12.95;;
68987;SDS011;56038;46.080;11.116;2023-02-13T14:12:50;18.02;;;12.65;;
68987;SDS011;56038;46.080;11.116;2023-02-13T14:18:01;17.23;;;11.52;;
68987;SDS011;56038;46.080;11.116;2023-02-13T14:23:20;17.70;;;12.50;;
68987;SDS011;56038;46.080;11.116;2023-02-13T14:28:28;19.63;;;12.93;;
68987;SDS011;56038;46.080;11.116;2023-02-13T14:33:29;17.08;;;12.35;;
68987;SDS011;56038;46.080;11.116;2023-02-13T14:38:34;19.17;;;13.65;;
68987;SDS011;56038;46.080;11.116;2023-02-13T14:43:38;16.92;;;11.55;;
68987;SDS011;56038;46.080;11.116;2023-02-13T14:48:51;16.35;;;11.38;;
68987;SDS011;56038;46.080;11.116;2023-02-13T14:54:00;11.85;;;8.88;;
68987;SDS011;56038;46.080;11.116;2023-02-13T14:59:09;15.85;;;9.63;;
68987;SDS011;56038;46.080;11.116;2023-02-13T15:04:16;16.48;;;9.93;;
68987;SDS011;56038;46.080;11.116;2023-02-13T15:09:31;13.82;;;9.10;;
68987;SDS011;56038;46.080;11.116;2023-02-13T15:14:37;14.32;;;8.77;;
68987;SDS011;56038;46.080;11.116;2023-02-13T15:19:42;15.40;;;10.63;;
68987;SDS011;56038;46.080;11.116;2023-02-13T15:24:48;14.73;;;9.32;;
68987;SDS011;56038;46.080;11.116;2023-02-13T15:29:58;14.25;;;9.80;;
68987;SDS011;56038;46.080;11.116;2023-02-13T15:35:01;15.50;;;9.63;;
68987;SDS011;56038;46.080;11.116;2023-02-13T15:40:16;14.13;;;9.52;;
68987;SDS011;56038;46.080;11.116;2023-02-13T15:45:24;16.65;;;9.43;;
68987;SDS011;56038;46.080;11.116;2023-02-13T15:50:32;12.70;;;9.25;;
68987;SDS011;56038;46.080;11.116;2023-02-13T15:56:01;15.77;;;9.63;;
68987;SDS011;56038;46.080;11.116;2023-02-13T16:01:05;14.18;;;9.15;;
68987;SDS011;56038;46.080;11.116;2023-02-13T16:06:10;15.63;;;10.18;;
68987;SDS011;56038;46.080;11.116;2023-02-13T16:11:29;16.17;;;10.38;;
68987;SDS011;56038;46.080;11.116;2023-02-13T16:16:34;14.35;;;10.02;;
68987;SDS011;56038;46.080;11.116;2023-02-13T16:21:44;15.32;;;10.57;;
68987;SDS011;56038;46.080;11.116;2023-02-13T16:26:51;20.67;;;11.38;;
68987;SDS011;56038;46.080;11.116;2023-02-13T16:31:53;15.05;;;10.10;;
68987;SDS011;56038;46.080;11.116;2023-02-13T16:42:31;16.90;;;11.50;;
68987;SDS011;56038;46.080;11.116;2023-02-13T16:47:33;18.85;;;10.88;;
68987;SDS011;56038;46.080;11.116;2023-02-13T16:52:36;19.02;;;10.57;;
68987;SDS011;56038;46.080;11.116;2023-02-13T16:57:39;20.70;;;11.88;;
68987;SDS011;56038;46.080;11.116;2023-02-13T17:02:44;16.00;;;10.63;;
68987;SDS011;56038;46.080;11.116;2023-02-13T17:07:47;16.80;;;10.90;;
68987;SDS011;56038;46.080;11.116;2023-02-13T17:12:53;18.85;;;12.02;;
68987;SDS011;56038;46.080;11.116;2023-02-13T17:17:57;13.95;;;9.57;;
68987;SDS011;56038;46.080;11.116;2023-02-13T17:22:59;16.65;;;10.93;;
68987;SDS011;56038;46.080;11.116;2023-02-13T17:28:10;14.52;;;8.45;;
68987;SDS011;56038;46.080;11.116;2023-02-13T17:33:14;12.00;;;8.00;;
68987;SDS011;56038;46.080;11.116;2023-02-13T17:38:20;13.57;;;9.52;;
68987;SDS011;56038;46.080;11.116;2023-02-13T17:43:25;12.80;;;9.10;;
68987;SDS011;56038;46.080;11.116;2023-02-13T17:53:29;16.13;;;9.70;;
68987;SDS011;56038;46.080;11.116;2023-02-13T17:58:33;14.20;;;8.90;;
68987;SDS011;56038;46.080;11.116;2023-02-13T18:03:35;17.35;;;9.95;;
68987;SDS011;56038;46.080;11.116;2023-02-13T18:08:36;19.85;;;11.70;;
68987;SDS011;56038;46.080;11.116;2023-02-13T18:13:40;15.23;;;10.13;;
68987;SDS011;56038;46.080;11.116;2023-02-13T18:18:47;20.10;;;12.35;;
68987;SDS011;56038;46.080;11.116;2023-02-13T18:23:50;20.27;;;12.10;;
68987;SDS011;56038;46.080;11.116;2023-02-13T18:28:53;17.48;;;11.35;;
68987;SDS011;56038;46.080;11.116;2023-02-13T18:33:55;20.13;;;10.80;;
68987;SDS011;56038;46.080;11.116;2023-02-13T18:38:57;18.08;;;10.88;;
68987;SDS011;56038;46.080;11.116;2023-02-13T18:44:00;18.40;;;11.35;;
68987;SDS011;56038;46.080;11.116;2023-02-13T18:49:02;26.55;;;13.60;;
68987;SDS011;56038;46.080;11.116;2023-02-13T18:54:05;20.92;;;13.52;;
68987;SDS011;56038;46.080;11.116;2023-02-13T18:59:08;20.00;;;12.13;;
68987;SDS011;56038;46.080;11.116;2023-02-13T19:04:10;18.73;;;10.65;;
68987;SDS011;56038;46.080;11.116;2023-02-13T19:09:12;17.33;;;11.38;;
68987;SDS011;56038;46.080;11.116;2023-02-13T19:14:15;20.73;;;13.07;;
68987;SDS011;56038;46.080;11.116;2023-02-13T19:19:17;18.75;;;12.57;;
68987;SDS011;56038;46.080;11.116;2023-02-13T19:24:19;22.05;;;13.63;;
68987;SDS011;56038;46.080;11.116;2023-02-13T19:29:22;26.25;;;15.63;;
68987;SDS011;56038;46.080;11.116;2023-02-13T19:34:24;20.70;;;13.65;;
68987;SDS011;56038;46.080;11.116;2023-02-13T19:39:26;18.52;;;11.65;;
68987;SDS011;56038;46.080;11.116;2023-02-13T19:44:30;20.27;;;12.35;;
68987;SDS011;56038;46.080;11.116;2023-02-13T19:49:32;18.38;;;11.95;;
68987;SDS011;56038;46.080;11.116;2023-02-13T19:54:34;20.27;;;13.18;;
68987;SDS011;56038;46.080;11.116;2023-02-13T19:59:37;22.35;;;13.75;;
68987;SDS011;56038;46.080;11.116;2023-02-13T20:04:39;17.98;;;11.80;;
68987;SDS011;56038;46.080;11.116;2023-02-13T20:09:41;20.75;;;12.93;;
68987;SDS011;56038;46.080;11.116;2023-02-13T20:14:45;20.17;;;12.23;;
68987;SDS011;56038;46.080;11.116;2023-02-13T20:19:50;19.52;;;11.88;;
68987;SDS011;56038;46.080;11.116;2023-02-13T20:24:52;21.40;;;12.70;;
68987;SDS011;56038;46.080;11.116;2023-02-13T20:29:55;17.58;;;11.68;;
68987;SDS011;56038;46.080;11.116;2023-02-13T20:34:57;21.85;;;12.80;;
68987;SDS011;56038;46.080;11.116;2023-02-13T20:40:02;18.27;;;12.98;;
68987;SDS011;56038;46.080;11.116;2023-02-13T20:45:06;19.77;;;12.23;;
68987;SDS011;56038;46.080;11.116;2023-02-13T20:50:08;23.00;;;12.43;;
68987;SDS011;56038;46.080;11.116;2023-02-13T20:55:10;19.45;;;11.10;;
68987;SDS011;56038;46.080;11.116;2023-02-13T21:00:14;17.48;;;12.07;;
68987;SDS011;56038;46.080;11.116;2023-02-13T21:05:16;20.75;;;13.80;;
68987;SDS011;56038;46.080;11.116;2023-02-13T21:10:20;18.88;;;12.98;;
68987;SDS011;56038;46.080;11.116;2023-02-13T21:15:23;21.13;;;13.63;;
68987;SDS011;56038;46.080;11.116;2023-02-13T21:20:25;18.90;;;12.57;;
68987;SDS011;56038;46.080;11.116;2023-02-13T21:25:27;21.00;;;13.25;;
68987;SDS011;56038;46.080;11.116;2023-02-13T21:30:30;23.75;;;14.93;;
68987;SDS011;56038;46.080;11.116;2023-02-13T21:35:32;17.80;;;11.77;;
68987;SDS011;56038;46.080;11.116;2023-02-13T21:40:33;19.13;;;12.57;;
68987;SDS011;56038;46.080;11.116;2023-02-13T21:45:36;17.42;;;11.70;;
68987;SDS011;56038;46.080;11.116;2023-02-13T21:50:38;27.27;;;16.08;;
68987;SDS011;56038;46.080;11.116;2023-02-13T21:55:40;23.95;;;14.07;;
68987;SDS011;56038;46.080;11.116;2023-02-13T22:00:43;25.48;;;15.60;;
68987;SDS011;56038;46.080;11.116;2023-02-13T22:05:45;27.73;;;15.57;;
68987;SDS011;56038;46.080;11.116;2023-02-13T22:10:53;23.73;;;14.43;;
68987;SDS011;56038;46.080;11.116;2023-02-13T22:15:59;25.27;;;14.48;;
68987;SDS011;56038;46.080;11.116;2023-02-13T22:21:02;21.67;;;14.27;;
68987;SDS011;56038;46.080;11.116;2023-02-13T22:26:05;19.50;;;12.73;;
68987;SDS011;56038;46.080;11.116;2023-02-13T22:31:09;21.55;;;13.57;;
68987;SDS011;56038;46.080;11.116;2023-02-13T22:36:12;23.13;;;13.38;;
68987;SDS011;56038;46.080;11.116;2023-02-13T22:41:16;23.40;;;14.10;;
68987;SDS011;56038;46.080;11.116;2023-02-13T22:46:21;22.27;;;12.85;;
68987;SDS011;56038;46.080;11.116;2023-02-13T22:51:25;22.48;;;12.45;;
68987;SDS011;56038;46.080;11.116;2023-02-13T22:56:29;18.80;;;11.63;;
68987;SDS011;56038;46.080;11.116;2023-02-13T23:01:32;19.77;;;12.75;;
68987;SDS011;56038;46.080;11.116;2023-02-13T23:06:39;20.50;;;12.83;;
68987;SDS011;56038;46.080;11.116;2023-02-13T23:11:46;21.02;;;13.05;;
68987;SDS011;56038;46.080;11.116;2023-02-13T23:17:06;22.67;;;13.23;;
68987;SDS011;56038;46.080;11.116;2023-02-13T23:22:25;18.42;;;12.32;;
68987;SDS011;56038;46.080;11.116;2023-02-13T23:27:27;22.52;;;14.20;;
68987;SDS011;56038;46.080;11.116;2023-02-13T23:32:30;18.83;;;11.65;;
68987;SDS011;56038;46.080;11.116;2023-02-13T23:37:32;17.67;;;11.15;;
68987;SDS011;56038;46.080;11.116;2023-02-13T23:42:34;17.67;;;11.43;;
68987;SDS011;56038;46.080;11.116;2023-02-13T23:47:37;18.70;;;11.82;;
68987;SDS011;56038;46.080;11.116;2023-02-13T23:52:39;18.45;;;12.35;;
68987;SDS011;56038;46.080;11.116;2023-02-13T23:57:41;17.60;;;11.93;;
